createdAt,value
2022-11-08T00:00:06.360Z,6.97
2022-11-08T00:05:11.867Z,6.68
2022-11-08T00:10:15.132Z,7.13
2022-11-08T00:15:18.334Z,6.95
2022-11-08T00:20:21.585Z,7.35
2022-11-08T00:30:28.804Z,7.38
2022-11-08T00:35:31.980Z,8.27
2022-11-08T00:40:41.443Z,8.25
2022-11-08T00:45:45.185Z,7.82
2022-11-08T00:50:48.666Z,10.25
2022-11-08T00:55:59.570Z,16.35
2022-11-08T01:01:09.837Z,21.58
2022-11-08T01:06:15.095Z,21.92
2022-11-08T01:11:24.094Z,36.40
2022-11-08T01:16:31.422Z,22.00
2022-11-08T01:21:34.954Z,19.23
2022-11-08T01:31:41.592Z,14.32
2022-11-08T01:36:44.884Z,13.00
2022-11-08T01:41:47.994Z,10.88
2022-11-08T01:46:51.275Z,8.15
2022-11-08T01:52:02.309Z,6.72
2022-11-08T01:57:11.282Z,6.88
2022-11-08T02:02:15.854Z,8.10
2022-11-08T02:07:19.343Z,6.38
2022-11-08T02:17:25.700Z,6.22
2022-11-08T02:27:38.574Z,6.55
2022-11-08T02:32:42.778Z,6.53
2022-11-08T02:37:47.013Z,6.07
2022-11-08T02:42:52.192Z,6.35
2022-11-08T02:47:55.961Z,7.50
2022-11-08T02:52:59.437Z,6.97
2022-11-08T02:58:03.531Z,7.50
2022-11-08T03:03:06.637Z,7.75
2022-11-08T03:08:10.582Z,8.82
2022-11-08T03:13:14.275Z,7.63
2022-11-08T03:18:17.807Z,8.05
2022-11-08T03:23:21.085Z,7.95
2022-11-08T03:28:24.550Z,7.63
2022-11-08T03:33:28.417Z,8.18
2022-11-08T03:38:31.820Z,9.13
2022-11-08T03:48:38.042Z,10.05
2022-11-08T03:53:41.108Z,10.15
2022-11-08T03:58:44.316Z,9.90
2022-11-08T04:03:47.799Z,9.73
2022-11-08T04:08:52.483Z,9.40
2022-11-08T04:13:55.948Z,8.20
2022-11-08T04:19:00.601Z,8.43
2022-11-08T04:24:04.220Z,8.05
2022-11-08T04:29:08.887Z,8.40
2022-11-08T04:34:12.570Z,6.20
2022-11-08T04:39:16.032Z,5.43
2022-11-08T04:44:19.703Z,6.40
2022-11-08T04:49:22.920Z,5.60
2022-11-08T04:59:29.226Z,4.88
2022-11-08T05:04:32.325Z,5.47
2022-11-08T05:14:38.980Z,5.07
2022-11-08T05:29:48.325Z,4.38
2022-11-08T05:34:51.820Z,4.90
2022-11-08T05:39:55.330Z,5.40
2022-11-08T05:44:58.804Z,4.57
2022-11-08T05:50:02.258Z,5.95
2022-11-08T05:55:07.008Z,4.82
2022-11-08T06:00:12.541Z,4.57
2022-11-08T06:05:16.691Z,3.97
2022-11-08T06:10:20.677Z,4.05
2022-11-08T06:15:24.136Z,4.10
2022-11-08T06:20:27.458Z,3.15
2022-11-08T06:25:30.724Z,3.17
2022-11-08T06:35:37.697Z,3.65
2022-11-08T06:40:41.200Z,2.42
2022-11-08T06:45:46.647Z,10.82
2022-11-08T06:50:50.103Z,13.57
2022-11-08T06:55:53.798Z,10.57
2022-11-08T07:00:57.519Z,11.65
2022-11-08T07:06:05.610Z,11.13
2022-11-08T07:11:09.285Z,12.55
2022-11-08T07:16:12.566Z,11.13
2022-11-08T07:21:16.675Z,10.05
2022-11-08T07:26:20.004Z,6.50
2022-11-08T07:31:23.221Z,12.63
2022-11-08T07:36:26.500Z,12.80
2022-11-08T07:41:32.900Z,11.02
2022-11-08T07:46:39.554Z,12.77
2022-11-08T07:51:42.836Z,11.20
2022-11-08T08:06:52.330Z,13.15
2022-11-08T08:11:55.798Z,15.18
2022-11-08T08:16:59.684Z,14.27
2022-11-08T08:22:03.187Z,13.90
2022-11-08T08:27:06.377Z,16.65
2022-11-08T08:37:12.770Z,17.02
2022-11-08T08:42:16.345Z,17.58
2022-11-08T08:47:19.819Z,15.60
2022-11-08T08:52:23.593Z,21.25
2022-11-08T08:57:26.939Z,6.28
2022-11-08T09:02:30.044Z,3.33
2022-11-08T09:07:33.258Z,3.00
2022-11-08T09:12:37.253Z,2.40
2022-11-08T09:17:41.013Z,2.10
2022-11-08T09:22:44.745Z,1.73
2022-11-08T09:27:48.141Z,1.40
2022-11-08T09:33:01.748Z,1.60
2022-11-08T09:38:05.855Z,1.52
2022-11-08T09:43:47.990Z,1.95
2022-11-08T09:48:52.371Z,1.40
2022-11-08T09:53:59.215Z,3.15
2022-11-08T09:59:11.554Z,2.50
2022-11-08T10:04:24.260Z,2.30
2022-11-08T10:09:48.289Z,2.28
2022-11-08T10:15:38.354Z,2.17
2022-11-08T10:21:06.359Z,1.85
2022-11-08T10:26:25.706Z,1.48
2022-11-08T10:31:31.957Z,2.40
2022-11-08T10:36:42.651Z,2.25
2022-11-08T10:42:22.330Z,1.73
2022-11-08T10:47:29.843Z,1.55
2022-11-08T10:52:45.634Z,1.63
2022-11-08T10:57:48.974Z,1.73
2022-11-08T11:03:20.552Z,1.30
2022-11-08T11:08:24.376Z,1.67
2022-11-08T11:13:29.122Z,2.20
2022-11-08T11:18:34.762Z,1.30
2022-11-08T11:23:50.443Z,2.28
2022-11-08T11:29:06.005Z,1.23
2022-11-08T11:34:18.308Z,3.58
2022-11-08T11:39:36.875Z,1.83
2022-11-08T11:45:00.877Z,1.52
2022-11-08T11:50:16.081Z,2.42
2022-11-08T11:55:24.870Z,1.52
2022-11-08T12:00:28.306Z,1.60
2022-11-08T12:05:56.837Z,2.60
2022-11-08T12:11:32.093Z,1.63
2022-11-08T12:17:00.116Z,1.98
2022-11-08T12:22:51.348Z,1.23
2022-11-08T12:28:10.325Z,1.93
2022-11-08T12:33:22.443Z,1.30
2022-11-08T12:38:37.177Z,1.33
2022-11-08T12:44:05.269Z,1.60
2022-11-08T12:49:44.161Z,1.90
2022-11-08T12:55:03.350Z,1.65
2022-11-08T13:00:15.077Z,1.60
2022-11-08T13:05:27.372Z,1.60
2022-11-08T13:10:37.037Z,2.17
2022-11-08T13:16:10.395Z,1.35
2022-11-08T13:21:29.052Z,1.40
2022-11-08T13:26:37.285Z,2.30
2022-11-08T13:31:54.591Z,1.58
2022-11-08T13:37:30.394Z,1.60
2022-11-08T13:42:33.987Z,1.25
2022-11-08T13:47:37.300Z,1.42
2022-11-08T13:52:47.157Z,2.33
2022-11-08T13:58:01.585Z,1.55
2022-11-08T14:03:33.551Z,1.50
2022-11-08T14:08:48.928Z,1.60
2022-11-08T14:14:03.995Z,1.55
2022-11-08T14:19:23.458Z,1.20
2022-11-08T14:24:35.784Z,1.40
2022-11-08T14:29:39.237Z,1.27
2022-11-08T14:34:43.351Z,1.70
2022-11-08T14:39:47.761Z,1.63
2022-11-08T14:44:53.745Z,2.20
2022-11-08T14:49:58.789Z,1.45
2022-11-08T14:55:07.884Z,1.45
2022-11-08T15:00:15.987Z,1.85
2022-11-08T15:05:48.128Z,1.50
2022-11-08T15:11:07.213Z,1.90
2022-11-08T15:16:11.631Z,2.10
2022-11-08T15:21:30.334Z,1.73
2022-11-08T15:26:35.789Z,1.70
2022-11-08T15:31:43.507Z,1.80
2022-11-08T15:36:48.187Z,1.55
2022-11-08T15:42:27.146Z,1.98
2022-11-08T15:47:42.230Z,2.33
2022-11-08T15:52:47.501Z,1.92
2022-11-08T15:57:51.184Z,2.63
2022-11-08T16:02:55.225Z,2.33
2022-11-08T16:08:00.983Z,2.50
2022-11-08T16:13:05.510Z,2.88
2022-11-08T16:18:12.535Z,2.08
2022-11-08T16:23:15.865Z,2.20
2022-11-08T16:28:29.871Z,2.33
2022-11-08T16:33:35.314Z,2.50
2022-11-08T16:38:38.719Z,3.40
2022-11-08T16:43:41.975Z,3.00
2022-11-08T16:48:49.907Z,2.42
2022-11-08T16:53:54.414Z,2.33
2022-11-08T16:58:57.731Z,2.60
2022-11-08T17:04:03.057Z,2.70
2022-11-08T17:09:15.979Z,2.50
2022-11-08T17:14:19.532Z,2.40
2022-11-08T17:19:22.685Z,2.60
2022-11-08T17:29:28.697Z,2.53
2022-11-08T17:34:33.730Z,2.03
2022-11-08T17:39:37.112Z,2.20
2022-11-08T17:44:40.485Z,2.10
2022-11-08T17:49:44.249Z,2.20
2022-11-08T17:54:52.665Z,2.13
2022-11-08T17:59:56.543Z,2.70
2022-11-08T18:05:00.146Z,2.33
2022-11-08T18:10:03.747Z,1.80
2022-11-08T18:15:09.015Z,2.42
2022-11-08T18:20:12.673Z,1.60
2022-11-08T18:25:16.490Z,1.73
2022-11-08T18:30:19.780Z,1.52
2022-11-08T18:35:23.644Z,2.00
2022-11-08T18:40:27.295Z,1.50
2022-11-08T18:45:31.084Z,1.65
2022-11-08T18:50:35.672Z,1.67
2022-11-08T18:55:39.663Z,2.13
2022-11-08T19:00:43.365Z,1.83
2022-11-08T19:05:46.990Z,1.50
2022-11-08T19:11:00.637Z,2.30
2022-11-08T19:16:06.094Z,1.42
2022-11-08T19:21:21.196Z,2.10
2022-11-08T19:26:26.465Z,2.22
2022-11-08T19:31:29.778Z,2.20
2022-11-08T19:41:37.006Z,2.35
2022-11-08T19:46:40.567Z,2.92
2022-11-08T19:51:44.221Z,2.20
2022-11-08T19:57:04.545Z,1.90
2022-11-08T20:02:09.490Z,2.45
2022-11-08T20:07:12.940Z,1.80
2022-11-08T20:12:16.262Z,2.00
2022-11-08T20:17:19.652Z,2.65
2022-11-08T20:27:25.969Z,2.28
2022-11-08T20:32:29.550Z,2.10
2022-11-08T20:37:33.097Z,2.17
2022-11-08T20:42:36.437Z,2.80
2022-11-08T20:52:46.796Z,2.17
2022-11-08T20:57:50.307Z,2.33
2022-11-08T21:02:53.812Z,2.20
2022-11-08T21:08:03.226Z,1.88
2022-11-08T21:13:20.818Z,2.10
2022-11-08T21:18:25.781Z,2.35
2022-11-08T21:23:29.086Z,2.65
2022-11-08T21:28:33.848Z,2.40
2022-11-08T21:33:38.016Z,2.00
2022-11-08T21:38:41.854Z,1.98
2022-11-08T21:43:45.618Z,2.08
2022-11-08T21:48:57.100Z,3.40
2022-11-08T21:54:00.206Z,2.30
2022-11-08T22:04:06.907Z,1.75
2022-11-08T22:09:10.647Z,1.95
2022-11-08T22:14:14.661Z,1.98
2022-11-08T22:19:18.099Z,2.58
2022-11-08T22:24:21.964Z,1.55
2022-11-08T22:29:25.350Z,2.00
2022-11-08T22:39:32.382Z,2.58
2022-11-08T22:44:35.693Z,1.67
2022-11-08T22:49:44.774Z,1.98
2022-11-08T22:54:48.303Z,1.83
2022-11-08T22:59:51.774Z,2.03
2022-11-08T23:04:55.170Z,1.85
2022-11-08T23:09:58.527Z,1.98
2022-11-08T23:15:02.152Z,1.63
2022-11-08T23:20:06.783Z,1.85
2022-11-08T23:25:10.268Z,2.00
2022-11-08T23:30:15.422Z,1.70
2022-11-08T23:35:20.808Z,2.03
2022-11-08T23:40:24.302Z,2.00
2022-11-08T23:45:27.644Z,2.35
2022-11-08T23:55:34.478Z,1.95
